createdAt,value
2023-06-16T00:01:37.962Z,100098.50
2023-06-16T00:06:43.810Z,100102.44
2023-06-16T00:11:46.896Z,100107.97
2023-06-16T00:16:50.901Z,100108.13
2023-06-16T00:21:53.597Z,100098.50
2023-06-16T00:26:56.955Z,100096.59
2023-06-16T00:31:59.370Z,100089.31
2023-06-16T00:37:01.987Z,100102.03
2023-06-16T00:42:05.219Z,100127.56
2023-06-16T00:47:10.759Z,100124.06
2023-06-16T00:52:18.362Z,100116.56
2023-06-16T00:57:22.667Z,100120.84
2023-06-16T01:02:25.896Z,100098.34
2023-06-16T01:08:00.694Z,100126.44
2023-06-16T01:13:31.247Z,100132.84
2023-06-16T01:18:35.092Z,100130.91
2023-06-16T01:24:05.984Z,100133.47
2023-06-16T01:29:12.564Z,100124.56
2023-06-16T01:34:16.638Z,100139.13
2023-06-16T01:39:22.780Z,100145.16
2023-06-16T01:44:29.434Z,100145.69
2023-06-16T01:49:34.049Z,100143.28
2023-06-16T01:54:36.797Z,100154.78
2023-06-16T01:59:40.777Z,100143.94
2023-06-16T02:04:47.290Z,100143.16
2023-06-16T02:09:52.478Z,100148.06
2023-06-16T02:14:55.346Z,100145.06
2023-06-16T02:19:59.846Z,100148.13
2023-06-16T02:25:02.786Z,100147.63
2023-06-16T02:30:07.862Z,100143.88
2023-06-16T02:35:10.967Z,100126.72
2023-06-16T02:40:13.807Z,100124.31
2023-06-16T02:45:17.863Z,100136.59
2023-06-16T02:50:22.391Z,100131.69
2023-06-16T02:55:26.023Z,100138.81
2023-06-16T03:00:31.692Z,100162.53
2023-06-16T03:05:52.961Z,100173.97
2023-06-16T03:10:56.667Z,100176.72
2023-06-16T03:16:05.163Z,100186.00
2023-06-16T03:21:08.192Z,100193.38
2023-06-16T03:26:17.277Z,100189.28
2023-06-16T03:31:41.030Z,100181.63
2023-06-16T03:36:47.414Z,100182.16
2023-06-16T03:41:50.208Z,100185.94
2023-06-16T03:46:53.045Z,100177.22
2023-06-16T03:51:59.011Z,100176.94
2023-06-16T03:57:03.274Z,100174.22
2023-06-16T04:02:10.700Z,100178.59
2023-06-16T04:07:20.459Z,100165.19
2023-06-16T04:12:26.113Z,100168.44
2023-06-16T04:17:32.664Z,100149.84
2023-06-16T04:22:36.266Z,100149.78
2023-06-16T04:27:39.979Z,100150.81
2023-06-16T04:32:46.419Z,100162.47
2023-06-16T04:37:53.083Z,100163.09
2023-06-16T04:42:57.075Z,100164.97
2023-06-16T04:48:00.312Z,100168.09
2023-06-16T04:53:04.641Z,100179.59
2023-06-16T04:58:08.029Z,100167.88
2023-06-16T05:03:11.708Z,100162.50
2023-06-16T05:08:14.971Z,100176.59
2023-06-16T05:13:18.026Z,100190.56
2023-06-16T05:18:21.005Z,100199.34
2023-06-16T05:23:23.813Z,100202.84
2023-06-16T05:28:26.829Z,100201.94
2023-06-16T05:33:30.332Z,100204.59
2023-06-16T05:38:33.504Z,100208.13
2023-06-16T05:43:36.454Z,100208.81
2023-06-16T05:48:41.521Z,100215.56
2023-06-16T05:53:47.001Z,100215.72
2023-06-16T05:58:50.065Z,100211.91
2023-06-16T06:03:53.378Z,100214.31
2023-06-16T06:08:57.287Z,100225.59
2023-06-16T06:14:00.156Z,100211.16
2023-06-16T06:19:03.310Z,100204.72
2023-06-16T06:24:07.227Z,100216.91
2023-06-16T06:29:11.747Z,100189.66
2023-06-16T06:34:14.651Z,100193.44
2023-06-16T06:39:18.029Z,100191.28
2023-06-16T06:44:21.434Z,100186.44
2023-06-16T06:49:26.440Z,100181.91
2023-06-16T06:54:31.285Z,100188.72
2023-06-16T06:59:35.147Z,100193.19
2023-06-16T07:04:41.144Z,100192.28
2023-06-16T07:09:44.322Z,100180.25
2023-06-16T07:14:48.703Z,100187.19
2023-06-16T07:19:51.623Z,100175.88
2023-06-16T07:24:54.857Z,100184.31
2023-06-16T07:29:57.760Z,100174.22
2023-06-16T07:35:00.706Z,100187.72
2023-06-16T07:40:08.407Z,100168.41
2023-06-16T07:45:11.687Z,100165.81
2023-06-16T07:50:15.181Z,100158.81
2023-06-16T07:55:18.098Z,100155.75
2023-06-16T08:00:21.881Z,100156.91
2023-06-16T08:05:24.904Z,100157.72
2023-06-16T08:10:27.745Z,100163.84
2023-06-16T08:15:30.538Z,100157.53
2023-06-16T08:20:34.038Z,100157.22
2023-06-16T08:25:36.724Z,100161.44
2023-06-16T08:30:39.941Z,100156.28
2023-06-16T08:35:42.699Z,100152.03
2023-06-16T08:40:45.789Z,100156.06
2023-06-16T08:45:51.792Z,100159.41
2023-06-16T08:50:58.432Z,100158.75
2023-06-16T08:56:04.441Z,100158.63
2023-06-16T09:01:07.785Z,100146.06
2023-06-16T09:06:12.205Z,100145.88
2023-06-16T09:11:27.122Z,100141.69
2023-06-16T09:16:30.801Z,100137.97
2023-06-16T09:21:36.627Z,100139.09
2023-06-16T09:26:42.365Z,100140.38
2023-06-16T09:31:45.970Z,100134.00
2023-06-16T09:36:49.464Z,100128.09
2023-06-16T09:41:53.801Z,100134.75
2023-06-16T09:47:01.757Z,100126.94
2023-06-16T09:52:04.900Z,100128.84
2023-06-16T09:57:09.492Z,100118.34
2023-06-16T10:02:13.869Z,100125.41
2023-06-16T10:07:17.306Z,100119.97
2023-06-16T10:12:22.314Z,100120.66
2023-06-16T10:17:27.906Z,100100.91
2023-06-16T10:22:31.320Z,100104.81
2023-06-16T10:27:35.342Z,100094.25
2023-06-16T10:32:39.246Z,100087.22
2023-06-16T10:37:42.535Z,100092.22
2023-06-16T10:42:47.517Z,100076.88
2023-06-16T10:47:59.492Z,100064.41
2023-06-16T10:53:13.709Z,100061.78
2023-06-16T10:58:24.906Z,100052.72
2023-06-16T11:03:45.588Z,100056.03
2023-06-16T11:09:01.693Z,100049.47
2023-06-16T11:14:04.623Z,100052.44
2023-06-16T11:19:07.579Z,100048.09
2023-06-16T11:24:14.308Z,100036.53
2023-06-16T11:29:17.323Z,100030.00
2023-06-16T11:34:24.803Z,100030.38
2023-06-16T11:39:29.613Z,100016.81
2023-06-16T11:44:33.519Z,100020.94
2023-06-16T11:49:38.769Z,100021.06
2023-06-16T11:55:03.310Z,100006.25
2023-06-16T12:00:09.002Z,100016.69
2023-06-16T12:05:21.577Z,100020.28
2023-06-16T12:10:25.749Z,100015.72
2023-06-16T12:15:28.586Z,100004.22
2023-06-16T12:20:31.451Z,100011.09
2023-06-16T12:25:35.132Z,100015.31
2023-06-16T12:30:37.785Z,100006.22
2023-06-16T12:35:42.419Z,100008.59
2023-06-16T12:40:45.432Z,100010.28
2023-06-16T12:45:48.255Z,100009.31
2023-06-16T12:51:10.333Z,100003.69
2023-06-16T12:56:18.015Z,99999.66
2023-06-16T13:01:30.285Z,99992.50
2023-06-16T13:06:42.137Z,99993.09
2023-06-16T13:11:45.172Z,99979.94
2023-06-16T13:16:48.010Z,99983.00
2023-06-16T13:21:50.798Z,99988.00
2023-06-16T13:26:53.600Z,99989.88
2023-06-16T13:31:57.366Z,99981.69
2023-06-16T13:37:00.308Z,99979.41
2023-06-16T13:42:03.098Z,99982.22
2023-06-16T13:47:06.366Z,99992.13
2023-06-16T13:52:09.629Z,99989.25
2023-06-16T13:57:13.560Z,99985.22
2023-06-16T14:02:16.715Z,99974.03
2023-06-16T14:07:19.455Z,99979.81
2023-06-16T14:12:22.386Z,99976.94
2023-06-16T14:17:26.100Z,99973.56
2023-06-16T14:22:28.858Z,99974.94
2023-06-16T14:27:32.952Z,99988.22
2023-06-16T14:32:36.962Z,99971.91
2023-06-16T14:37:40.913Z,99982.28
2023-06-16T14:42:43.764Z,99976.22
2023-06-16T14:47:46.613Z,99972.50
2023-06-16T14:52:50.774Z,99960.09
2023-06-16T14:57:53.583Z,99955.97
2023-06-16T15:02:57.507Z,99954.28
2023-06-16T15:08:00.689Z,99965.09
2023-06-16T15:13:22.392Z,99972.91
2023-06-16T15:18:25.166Z,99960.94
2023-06-16T15:23:28.210Z,99951.38
2023-06-16T15:28:49.516Z,99963.47
2023-06-16T15:33:52.324Z,99956.38
2023-06-16T15:38:57.967Z,99960.34
2023-06-16T15:44:01.192Z,99962.75
2023-06-16T15:49:05.717Z,99972.34
2023-06-16T15:54:09.692Z,99953.09
2023-06-16T15:59:12.421Z,99959.03
2023-06-16T16:04:15.251Z,99966.38
2023-06-16T16:09:18.706Z,99963.63
2023-06-16T16:14:22.998Z,99969.81
2023-06-16T16:19:28.911Z,99971.50
2023-06-16T16:24:31.923Z,99973.75
2023-06-16T16:29:34.659Z,99981.16
2023-06-16T16:34:37.334Z,99982.81
2023-06-16T16:39:40.162Z,99982.91
2023-06-16T16:44:44.191Z,99989.84
2023-06-16T16:49:46.945Z,99978.41
2023-06-16T16:54:51.006Z,99983.38
2023-06-16T16:59:55.635Z,99992.47
2023-06-16T17:04:58.549Z,99999.34
2023-06-16T17:10:01.396Z,100004.25
2023-06-16T17:15:06.589Z,99998.81
2023-06-16T17:20:10.014Z,100004.13
2023-06-16T17:25:12.938Z,100010.66
2023-06-16T17:30:15.862Z,100009.53
2023-06-16T17:35:18.563Z,100014.75
2023-06-16T17:40:22.080Z,100024.31
2023-06-16T17:45:24.967Z,100023.22
2023-06-16T17:50:29.575Z,100027.56
2023-06-16T17:55:32.823Z,100032.06
2023-06-16T18:00:38.981Z,100032.78
2023-06-16T18:05:41.752Z,100031.50
2023-06-16T18:10:44.943Z,100037.06
2023-06-16T18:15:50.869Z,100021.00
2023-06-16T18:20:54.332Z,100022.53
2023-06-16T18:25:57.407Z,100016.84
2023-06-16T18:31:01.278Z,100015.28
2023-06-16T18:36:04.285Z,100016.78
2023-06-16T18:41:06.882Z,100018.00
2023-06-16T18:46:09.762Z,100021.34
2023-06-16T18:51:13.449Z,100013.00
2023-06-16T18:56:16.522Z,100010.63
2023-06-16T19:01:19.245Z,100011.78
2023-06-16T19:06:23.039Z,100001.50
2023-06-16T19:11:28.772Z,100006.28
2023-06-16T19:16:34.828Z,100002.78
2023-06-16T19:21:40.255Z,100003.16
2023-06-16T19:26:43.079Z,99992.38
2023-06-16T19:31:47.822Z,99999.47
2023-06-16T19:36:50.624Z,100003.19
2023-06-16T19:41:53.351Z,100003.41
2023-06-16T19:46:56.207Z,100000.22
2023-06-16T19:51:59.802Z,100007.81
2023-06-16T19:57:21.209Z,100009.44
2023-06-16T20:02:24.063Z,99988.25
2023-06-16T20:07:29.256Z,99992.75
2023-06-16T20:12:33.359Z,99986.47
2023-06-16T20:17:37.071Z,99987.97
2023-06-16T20:22:41.090Z,99971.44
2023-06-16T20:27:43.902Z,99972.25
2023-06-16T20:32:49.220Z,99969.44
2023-06-16T20:37:51.934Z,99966.50
2023-06-16T20:42:57.513Z,99958.09
2023-06-16T20:48:00.401Z,99956.78
2023-06-16T20:53:02.988Z,99959.31
2023-06-16T20:58:06.577Z,99960.13
2023-06-16T21:03:11.281Z,99960.22
2023-06-16T21:08:18.787Z,99950.53
2023-06-16T21:13:23.215Z,99950.22
2023-06-16T21:18:26.588Z,99946.75
2023-06-16T21:23:29.482Z,99943.19
2023-06-16T21:28:32.596Z,99945.69
2023-06-16T21:33:35.437Z,99947.09
2023-06-16T21:38:38.372Z,99955.06
2023-06-16T21:43:42.169Z,99956.69
2023-06-16T21:48:44.945Z,99950.47
2023-06-16T21:53:47.792Z,99953.53
2023-06-16T21:58:50.463Z,99955.50
2023-06-16T22:03:53.252Z,99952.34
2023-06-16T22:08:55.917Z,99947.78
2023-06-16T22:13:59.353Z,99942.94
2023-06-16T22:19:02.276Z,99944.44
2023-06-16T22:24:05.031Z,99938.50
2023-06-16T22:29:07.969Z,99943.19
2023-06-16T22:34:11.446Z,99937.25
2023-06-16T22:39:14.593Z,99930.22
2023-06-16T22:44:17.441Z,99917.16
2023-06-16T22:49:27.582Z,99908.69
2023-06-16T22:54:30.403Z,99915.53
2023-06-16T22:59:33.517Z,99918.28
2023-06-16T23:04:36.267Z,99912.81
2023-06-16T23:09:38.989Z,99912.00
2023-06-16T23:14:41.690Z,99920.75
2023-06-16T23:19:44.303Z,99912.31
2023-06-16T23:24:46.940Z,99913.44
2023-06-16T23:29:53.837Z,99902.59
2023-06-16T23:34:57.378Z,99913.25
2023-06-16T23:40:00.063Z,99911.94
2023-06-16T23:45:06.949Z,99904.41
2023-06-16T23:50:11.279Z,99901.97
2023-06-16T23:55:14.002Z,99911.28
